sensor_id;sensor_type;location;lat;lon;timestamp;temperature;humidity
48007;DHT22;33771;48.180;11.400;2024-03-22T00:00:38;5.80;99.90
48007;DHT22;33771;48.180;11.400;2024-03-22T00:03:04;5.80;99.90
48007;DHT22;33771;48.180;11.400;2024-03-22T00:05:30;5.80;99.90
48007;DHT22;33771;48.180;11.400;2024-03-22T00:07:55;5.80;99.90
48007;DHT22;33771;48.180;11.400;2024-03-22T00:10:22;5.80;99.90
48007;DHT22;33771;48.180;11.400;2024-03-22T00:12:49;5.80;99.90
48007;DHT22;33771;48.180;11.400;2024-03-22T00:15:14;5.80;99.90
48007;DHT22;33771;48.180;11.400;2024-03-22T00:17:40;5.80;99.90
48007;DHT22;33771;48.180;11.400;2024-03-22T00:20:06;5.80;99.90
48007;DHT22;33771;48.180;11.400;2024-03-22T00:22:32;5.80;99.90
48007;DHT22;33771;48.180;11.400;2024-03-22T00:24:57;5.80;99.90
48007;DHT22;33771;48.180;11.400;2024-03-22T00:27:23;5.80;99.90
48007;DHT22;33771;48.180;11.400;2024-03-22T00:29:48;5.80;99.90
48007;DHT22;33771;48.180;11.400;2024-03-22T00:32:14;5.80;99.90
48007;DHT22;33771;48.180;11.400;2024-03-22T00:34:39;5.80;99.90
48007;DHT22;33771;48.180;11.400;2024-03-22T00:37:05;5.80;99.90
48007;DHT22;33771;48.180;11.400;2024-03-22T00:39:30;5.80;99.90
48007;DHT22;33771;48.180;11.400;2024-03-22T00:41:56;5.70;99.90
48007;DHT22;33771;48.180;11.400;2024-03-22T00:44:22;5.70;99.90
48007;DHT22;33771;48.180;11.400;2024-03-22T00:46:53;5.70;99.90
48007;DHT22;33771;48.180;11.400;2024-03-22T00:49:18;5.70;99.90
48007;DHT22;33771;48.180;11.400;2024-03-22T00:51:44;5.70;99.90
48007;DHT22;33771;48.180;11.400;2024-03-22T00:54:10;5.60;99.90
48007;DHT22;33771;48.180;11.400;2024-03-22T00:56:36;5.60;99.90
48007;DHT22;33771;48.180;11.400;2024-03-22T00:59:01;5.50;99.90
48007;DHT22;33771;48.180;11.400;2024-03-22T01:01:27;5.50;99.90
48007;DHT22;33771;48.180;11.400;2024-03-22T01:03:53;5.40;99.90
48007;DHT22;33771;48.180;11.400;2024-03-22T01:06:18;5.40;99.90
48007;DHT22;33771;48.180;11.400;2024-03-22T01:08:49;5.30;99.90
48007;DHT22;33771;48.180;11.400;2024-03-22T01:11:14;5.30;99.90
48007;DHT22;33771;48.180;11.400;2024-03-22T01:13:40;5.30;99.90
48007;DHT22;33771;48.180;11.400;2024-03-22T01:16:06;5.20;99.90
48007;DHT22;33771;48.180;11.400;2024-03-22T01:18:33;5.20;99.90
48007;DHT22;33771;48.180;11.400;2024-03-22T01:20:59;5.10;99.90
48007;DHT22;33771;48.180;11.400;2024-03-22T01:23:24;5.10;99.90
48007;DHT22;33771;48.180;11.400;2024-03-22T01:25:50;5.10;99.90
48007;DHT22;33771;48.180;11.400;2024-03-22T01:28:15;5.10;99.90
48007;DHT22;33771;48.180;11.400;2024-03-22T01:30:42;5.10;99.90
48007;DHT22;33771;48.180;11.400;2024-03-22T01:33:08;5.00;99.90
48007;DHT22;33771;48.180;11.400;2024-03-22T01:35:34;5.00;99.90
48007;DHT22;33771;48.180;11.400;2024-03-22T01:37:59;5.00;99.90
48007;DHT22;33771;48.180;11.400;2024-03-22T01:40:25;5.00;99.90
48007;DHT22;33771;48.180;11.400;2024-03-22T01:42:56;5.00;99.90
48007;DHT22;33771;48.180;11.400;2024-03-22T01:45:22;5.00;99.90
48007;DHT22;33771;48.180;11.400;2024-03-22T01:47:52;4.90;99.90
48007;DHT22;33771;48.180;11.400;2024-03-22T01:50:22;4.90;99.90
48007;DHT22;33771;48.180;11.400;2024-03-22T01:52:47;4.90;99.90
48007;DHT22;33771;48.180;11.400;2024-03-22T01:55:13;4.90;99.90
48007;DHT22;33771;48.180;11.400;2024-03-22T01:57:39;4.90;99.90
48007;DHT22;33771;48.180;11.400;2024-03-22T02:00:06;4.80;99.90
48007;DHT22;33771;48.180;11.400;2024-03-22T02:02:34;4.80;99.90
48007;DHT22;33771;48.180;11.400;2024-03-22T02:04:59;4.80;99.90
48007;DHT22;33771;48.180;11.400;2024-03-22T02:07:29;4.80;99.90
48007;DHT22;33771;48.180;11.400;2024-03-22T02:09:55;4.80;99.90
48007;DHT22;33771;48.180;11.400;2024-03-22T02:12:21;4.80;99.90
48007;DHT22;33771;48.180;11.400;2024-03-22T02:14:46;4.70;99.90
48007;DHT22;33771;48.180;11.400;2024-03-22T02:17:11;4.70;99.90
48007;DHT22;33771;48.180;11.400;2024-03-22T02:19:37;4.70;99.90
48007;DHT22;33771;48.180;11.400;2024-03-22T02:22:03;4.70;99.90
48007;DHT22;33771;48.180;11.400;2024-03-22T02:24:28;4.60;99.90
48007;DHT22;33771;48.180;11.400;2024-03-22T02:26:54;4.60;99.90
48007;DHT22;33771;48.180;11.400;2024-03-22T02:29:19;4.60;99.90
48007;DHT22;33771;48.180;11.400;2024-03-22T02:31:45;4.60;99.90
48007;DHT22;33771;48.180;11.400;2024-03-22T02:34:10;4.60;99.90
48007;DHT22;33771;48.180;11.400;2024-03-22T02:36:36;4.50;99.90
48007;DHT22;33771;48.180;11.400;2024-03-22T02:39:01;4.50;99.90
48007;DHT22;33771;48.180;11.400;2024-03-22T02:41:27;4.50;99.90
48007;DHT22;33771;48.180;11.400;2024-03-22T02:43:52;4.50;99.90
48007;DHT22;33771;48.180;11.400;2024-03-22T02:46:18;4.50;99.90
48007;DHT22;33771;48.180;11.400;2024-03-22T02:48:43;4.50;99.90
48007;DHT22;33771;48.180;11.400;2024-03-22T02:51:09;4.50;99.90
48007;DHT22;33771;48.180;11.400;2024-03-22T02:53:34;4.40;99.90
48007;DHT22;33771;48.180;11.400;2024-03-22T02:56:00;4.40;99.90
48007;DHT22;33771;48.180;11.400;2024-03-22T02:58:26;4.40;99.90
48007;DHT22;33771;48.180;11.400;2024-03-22T03:00:51;4.40;99.90
48007;DHT22;33771;48.180;11.400;2024-03-22T03:03:17;4.30;99.90
48007;DHT22;33771;48.180;11.400;2024-03-22T03:05:43;4.30;99.90
48007;DHT22;33771;48.180;11.400;2024-03-22T03:08:09;4.30;99.90
48007;DHT22;33771;48.180;11.400;2024-03-22T03:10:35;4.30;99.90
48007;DHT22;33771;48.180;11.400;2024-03-22T03:13:00;4.30;99.90
48007;DHT22;33771;48.180;11.400;2024-03-22T03:15:26;4.30;99.90
48007;DHT22;33771;48.180;11.400;2024-03-22T03:17:52;4.30;99.90
48007;DHT22;33771;48.180;11.400;2024-03-22T03:20:17;4.30;99.90
48007;DHT22;33771;48.180;11.400;2024-03-22T03:22:43;4.20;99.90
48007;DHT22;33771;48.180;11.400;2024-03-22T03:25:09;4.20;99.90
48007;DHT22;33771;48.180;11.400;2024-03-22T03:27:35;4.20;99.90
48007;DHT22;33771;48.180;11.400;2024-03-22T03:30:01;4.20;99.90
48007;DHT22;33771;48.180;11.400;2024-03-22T03:32:27;4.20;99.90
48007;DHT22;33771;48.180;11.400;2024-03-22T03:34:53;4.20;99.90
48007;DHT22;33771;48.180;11.400;2024-03-22T03:37:18;4.20;99.90
48007;DHT22;33771;48.180;11.400;2024-03-22T03:39:44;4.10;99.90
48007;DHT22;33771;48.180;11.400;2024-03-22T03:42:10;4.10;99.90
48007;DHT22;33771;48.180;11.400;2024-03-22T03:44:36;4.10;99.90
48007;DHT22;33771;48.180;11.400;2024-03-22T03:47:02;4.10;99.90
48007;DHT22;33771;48.180;11.400;2024-03-22T03:49:28;4.10;99.90
48007;DHT22;33771;48.180;11.400;2024-03-22T03:51:53;4.00;99.90
48007;DHT22;33771;48.180;11.400;2024-03-22T03:54:19;4.00;99.90
48007;DHT22;33771;48.180;11.400;2024-03-22T03:56:44;4.00;99.90
48007;DHT22;33771;48.180;11.400;2024-03-22T03:59:10;4.00;99.90
48007;DHT22;33771;48.180;11.400;2024-03-22T04:01:35;4.00;99.90
48007;DHT22;33771;48.180;11.400;2024-03-22T04:04:02;4.00;99.90
48007;DHT22;33771;48.180;11.400;2024-03-22T04:06:28;4.00;99.90
48007;DHT22;33771;48.180;11.400;2024-03-22T04:08:53;4.00;99.90
48007;DHT22;33771;48.180;11.400;2024-03-22T04:11:19;4.10;99.90
48007;DHT22;33771;48.180;11.400;2024-03-22T04:13:45;4.10;99.90
48007;DHT22;33771;48.180;11.400;2024-03-22T04:16:10;4.20;99.90
48007;DHT22;33771;48.180;11.400;2024-03-22T04:18:36;4.20;99.90
48007;DHT22;33771;48.180;11.400;2024-03-22T04:21:01;4.20;99.90
48007;DHT22;33771;48.180;11.400;2024-03-22T04:23:27;4.20;99.90
48007;DHT22;33771;48.180;11.400;2024-03-22T04:26:00;4.20;99.90
48007;DHT22;33771;48.180;11.400;2024-03-22T04:28:26;4.20;99.90
48007;DHT22;33771;48.180;11.400;2024-03-22T04:33:21;4.20;99.90
48007;DHT22;33771;48.180;11.400;2024-03-22T04:35:47;4.20;99.90
48007;DHT22;33771;48.180;11.400;2024-03-22T04:38:12;4.20;99.90
48007;DHT22;33771;48.180;11.400;2024-03-22T04:40:38;4.10;99.90
48007;DHT22;33771;48.180;11.400;2024-03-22T04:43:04;4.10;99.90
48007;DHT22;33771;48.180;11.400;2024-03-22T04:45:30;4.10;99.90
48007;DHT22;33771;48.180;11.400;2024-03-22T04:47:55;4.10;99.90
48007;DHT22;33771;48.180;11.400;2024-03-22T04:50:21;4.00;99.90
48007;DHT22;33771;48.180;11.400;2024-03-22T04:52:46;4.00;99.90
48007;DHT22;33771;48.180;11.400;2024-03-22T04:55:12;4.00;99.90
48007;DHT22;33771;48.180;11.400;2024-03-22T04:57:37;3.90;99.90
48007;DHT22;33771;48.180;11.400;2024-03-22T05:00:03;3.90;99.90
48007;DHT22;33771;48.180;11.400;2024-03-22T05:02:29;4.00;99.90
48007;DHT22;33771;48.180;11.400;2024-03-22T05:04:55;4.00;99.90
48007;DHT22;33771;48.180;11.400;2024-03-22T05:07:20;4.00;99.90
48007;DHT22;33771;48.180;11.400;2024-03-22T05:09:46;4.10;99.90
48007;DHT22;33771;48.180;11.400;2024-03-22T05:12:12;4.20;99.90
48007;DHT22;33771;48.180;11.400;2024-03-22T05:14:37;4.20;99.90
48007;DHT22;33771;48.180;11.400;2024-03-22T05:17:02;4.30;99.90
48007;DHT22;33771;48.180;11.400;2024-03-22T05:19:28;4.30;99.90
48007;DHT22;33771;48.180;11.400;2024-03-22T05:21:54;4.40;99.90
48007;DHT22;33771;48.180;11.400;2024-03-22T05:24:19;4.50;99.90
48007;DHT22;33771;48.180;11.400;2024-03-22T05:26:45;4.50;99.90
48007;DHT22;33771;48.180;11.400;2024-03-22T05:29:10;4.60;99.90
48007;DHT22;33771;48.180;11.400;2024-03-22T05:31:46;4.70;99.90
48007;DHT22;33771;48.180;11.400;2024-03-22T05:34:13;4.70;99.90
48007;DHT22;33771;48.180;11.400;2024-03-22T05:36:40;4.80;99.90
48007;DHT22;33771;48.180;11.400;2024-03-22T05:39:05;4.90;99.90
48007;DHT22;33771;48.180;11.400;2024-03-22T05:41:31;4.90;99.90
48007;DHT22;33771;48.180;11.400;2024-03-22T05:43:56;5.00;99.90
48007;DHT22;33771;48.180;11.400;2024-03-22T05:46:22;5.10;99.90
48007;DHT22;33771;48.180;11.400;2024-03-22T05:48:47;5.10;99.90
48007;DHT22;33771;48.180;11.400;2024-03-22T05:51:15;5.20;99.90
48007;DHT22;33771;48.180;11.400;2024-03-22T05:53:40;5.20;99.90
48007;DHT22;33771;48.180;11.400;2024-03-22T05:56:07;5.30;99.90
48007;DHT22;33771;48.180;11.400;2024-03-22T05:58:33;5.30;99.90
48007;DHT22;33771;48.180;11.400;2024-03-22T06:00:58;5.40;99.90
48007;DHT22;33771;48.180;11.400;2024-03-22T06:03:24;5.40;99.90
48007;DHT22;33771;48.180;11.400;2024-03-22T06:05:49;5.40;99.90
48007;DHT22;33771;48.180;11.400;2024-03-22T06:08:15;5.40;99.90
48007;DHT22;33771;48.180;11.400;2024-03-22T06:10:45;5.40;99.90
48007;DHT22;33771;48.180;11.400;2024-03-22T06:13:10;5.40;99.90
48007;DHT22;33771;48.180;11.400;2024-03-22T06:15:36;5.40;99.90
48007;DHT22;33771;48.180;11.400;2024-03-22T06:18:01;5.30;99.90
48007;DHT22;33771;48.180;11.400;2024-03-22T06:20:27;5.20;99.90
48007;DHT22;33771;48.180;11.400;2024-03-22T06:22:52;5.10;99.90
48007;DHT22;33771;48.180;11.400;2024-03-22T06:25:18;5.10;99.90
48007;DHT22;33771;48.180;11.400;2024-03-22T06:27:43;5.00;99.90
48007;DHT22;33771;48.180;11.400;2024-03-22T06:30:09;5.00;99.90
48007;DHT22;33771;48.180;11.400;2024-03-22T06:32:35;5.00;99.90
48007;DHT22;33771;48.180;11.400;2024-03-22T06:35:01;5.10;99.90
48007;DHT22;33771;48.180;11.400;2024-03-22T06:37:26;5.10;99.90
48007;DHT22;33771;48.180;11.400;2024-03-22T06:39:52;5.20;99.90
48007;DHT22;33771;48.180;11.400;2024-03-22T06:42:17;5.30;99.90
48007;DHT22;33771;48.180;11.400;2024-03-22T06:44:43;5.30;99.90
48007;DHT22;33771;48.180;11.400;2024-03-22T06:47:08;5.40;99.90
48007;DHT22;33771;48.180;11.400;2024-03-22T06:49:34;5.50;99.90
48007;DHT22;33771;48.180;11.400;2024-03-22T06:51:59;5.60;99.90
48007;DHT22;33771;48.180;11.400;2024-03-22T06:54:25;5.80;99.90
48007;DHT22;33771;48.180;11.400;2024-03-22T06:56:52;5.90;99.90
48007;DHT22;33771;48.180;11.400;2024-03-22T06:59:17;6.00;99.90
48007;DHT22;33771;48.180;11.400;2024-03-22T07:01:42;6.10;99.90
48007;DHT22;33771;48.180;11.400;2024-03-22T07:04:08;6.20;99.90
48007;DHT22;33771;48.180;11.400;2024-03-22T07:06:34;6.40;99.90
48007;DHT22;33771;48.180;11.400;2024-03-22T07:09:00;6.50;99.90
48007;DHT22;33771;48.180;11.400;2024-03-22T07:11:25;6.70;99.90
48007;DHT22;33771;48.180;11.400;2024-03-22T07:13:51;6.80;99.90
48007;DHT22;33771;48.180;11.400;2024-03-22T07:16:16;7.00;99.90
48007;DHT22;33771;48.180;11.400;2024-03-22T07:18:42;7.10;99.90
48007;DHT22;33771;48.180;11.400;2024-03-22T07:21:07;7.20;99.90
48007;DHT22;33771;48.180;11.400;2024-03-22T07:23:33;7.30;99.90
48007;DHT22;33771;48.180;11.400;2024-03-22T07:25:58;7.50;99.90
48007;DHT22;33771;48.180;11.400;2024-03-22T07:28:25;7.60;99.90
48007;DHT22;33771;48.180;11.400;2024-03-22T07:30:50;7.70;99.90
48007;DHT22;33771;48.180;11.400;2024-03-22T07:33:16;7.80;99.90
48007;DHT22;33771;48.180;11.400;2024-03-22T07:35:44;7.90;99.90
48007;DHT22;33771;48.180;11.400;2024-03-22T07:38:10;7.90;99.90
48007;DHT22;33771;48.180;11.400;2024-03-22T07:40:36;8.10;99.90
48007;DHT22;33771;48.180;11.400;2024-03-22T07:43:01;8.20;99.90
48007;DHT22;33771;48.180;11.400;2024-03-22T07:45:32;8.30;99.90
48007;DHT22;33771;48.180;11.400;2024-03-22T07:47:57;8.40;99.90
48007;DHT22;33771;48.180;11.400;2024-03-22T07:50:23;8.60;99.90
48007;DHT22;33771;48.180;11.400;2024-03-22T07:52:48;8.60;99.90
48007;DHT22;33771;48.180;11.400;2024-03-22T07:55:14;8.70;99.90
48007;DHT22;33771;48.180;11.400;2024-03-22T07:57:39;8.80;99.90
48007;DHT22;33771;48.180;11.400;2024-03-22T08:00:05;8.90;99.90
48007;DHT22;33771;48.180;11.400;2024-03-22T08:02:32;9.10;99.90
48007;DHT22;33771;48.180;11.400;2024-03-22T08:04:58;9.20;99.90
48007;DHT22;33771;48.180;11.400;2024-03-22T08:07:23;9.40;99.90
48007;DHT22;33771;48.180;11.400;2024-03-22T08:09:49;9.40;99.90
48007;DHT22;33771;48.180;11.400;2024-03-22T08:12:14;9.50;99.90
48007;DHT22;33771;48.180;11.400;2024-03-22T08:14:40;9.70;99.90
48007;DHT22;33771;48.180;11.400;2024-03-22T08:17:07;9.80;99.90
48007;DHT22;33771;48.180;11.400;2024-03-22T08:19:34;10.10;99.90
48007;DHT22;33771;48.180;11.400;2024-03-22T08:22:00;10.30;99.90
48007;DHT22;33771;48.180;11.400;2024-03-22T08:24:26;10.50;99.90
48007;DHT22;33771;48.180;11.400;2024-03-22T08:26:51;10.70;99.90
48007;DHT22;33771;48.180;11.400;2024-03-22T08:29:17;10.90;99.90
48007;DHT22;33771;48.180;11.400;2024-03-22T08:31:42;11.10;99.90
48007;DHT22;33771;48.180;11.400;2024-03-22T08:34:08;11.20;99.90
48007;DHT22;33771;48.180;11.400;2024-03-22T08:36:34;11.40;99.90
48007;DHT22;33771;48.180;11.400;2024-03-22T08:39:00;11.60;99.90
48007;DHT22;33771;48.180;11.400;2024-03-22T08:41:25;11.70;99.90
48007;DHT22;33771;48.180;11.400;2024-03-22T08:43:51;11.70;99.90
48007;DHT22;33771;48.180;11.400;2024-03-22T08:46:16;11.80;99.90
48007;DHT22;33771;48.180;11.400;2024-03-22T08:48:42;11.90;99.90
48007;DHT22;33771;48.180;11.400;2024-03-22T08:51:07;11.90;99.90
48007;DHT22;33771;48.180;11.400;2024-03-22T08:53:33;12.00;99.90
48007;DHT22;33771;48.180;11.400;2024-03-22T08:55:58;12.10;99.90
48007;DHT22;33771;48.180;11.400;2024-03-22T08:58:24;12.30;99.90
48007;DHT22;33771;48.180;11.400;2024-03-22T09:00:49;12.50;99.90
48007;DHT22;33771;48.180;11.400;2024-03-22T09:03:15;12.70;99.90
48007;DHT22;33771;48.180;11.400;2024-03-22T09:05:41;13.00;99.90
48007;DHT22;33771;48.180;11.400;2024-03-22T09:08:06;13.10;99.90
48007;DHT22;33771;48.180;11.400;2024-03-22T09:10:32;13.20;99.90
48007;DHT22;33771;48.180;11.400;2024-03-22T09:12:57;13.20;99.90
48007;DHT22;33771;48.180;11.400;2024-03-22T09:15:23;13.20;99.90
48007;DHT22;33771;48.180;11.400;2024-03-22T09:17:51;13.20;99.90
48007;DHT22;33771;48.180;11.400;2024-03-22T09:20:16;13.10;99.90
48007;DHT22;33771;48.180;11.400;2024-03-22T09:22:42;13.10;99.90
48007;DHT22;33771;48.180;11.400;2024-03-22T09:25:07;13.30;99.90
48007;DHT22;33771;48.180;11.400;2024-03-22T09:27:33;13.40;99.90
48007;DHT22;33771;48.180;11.400;2024-03-22T09:29:59;13.60;99.90
48007;DHT22;33771;48.180;11.400;2024-03-22T09:32:26;13.70;99.90
48007;DHT22;33771;48.180;11.400;2024-03-22T09:34:52;13.80;99.90
48007;DHT22;33771;48.180;11.400;2024-03-22T09:37:17;14.00;99.90
48007;DHT22;33771;48.180;11.400;2024-03-22T09:39:43;14.20;99.90
48007;DHT22;33771;48.180;11.400;2024-03-22T09:42:16;14.50;99.90
48007;DHT22;33771;48.180;11.400;2024-03-22T09:44:47;14.60;99.90
48007;DHT22;33771;48.180;11.400;2024-03-22T09:47:19;14.70;99.90
48007;DHT22;33771;48.180;11.400;2024-03-22T09:49:46;14.80;99.90
48007;DHT22;33771;48.180;11.400;2024-03-22T09:52:14;14.80;99.90
48007;DHT22;33771;48.180;11.400;2024-03-22T09:54:43;14.90;99.90
48007;DHT22;33771;48.180;11.400;2024-03-22T09:57:18;15.00;99.90
48007;DHT22;33771;48.180;11.400;2024-03-22T09:59:45;15.10;99.90
48007;DHT22;33771;48.180;11.400;2024-03-22T10:02:12;15.10;99.90
48007;DHT22;33771;48.180;11.400;2024-03-22T10:04:38;15.30;99.90
48007;DHT22;33771;48.180;11.400;2024-03-22T10:07:04;15.30;99.90
48007;DHT22;33771;48.180;11.400;2024-03-22T10:09:30;15.40;99.90
48007;DHT22;33771;48.180;11.400;2024-03-22T10:11:56;15.40;99.90
48007;DHT22;33771;48.180;11.400;2024-03-22T10:14:22;15.60;99.90
48007;DHT22;33771;48.180;11.400;2024-03-22T10:16:53;15.70;99.90
48007;DHT22;33771;48.180;11.400;2024-03-22T10:19:23;15.80;99.90
48007;DHT22;33771;48.180;11.400;2024-03-22T10:22:05;15.80;99.90
48007;DHT22;33771;48.180;11.400;2024-03-22T10:24:33;15.80;99.90
48007;DHT22;33771;48.180;11.400;2024-03-22T10:26:59;15.80;99.90
48007;DHT22;33771;48.180;11.400;2024-03-22T10:29:25;15.90;99.90
48007;DHT22;33771;48.180;11.400;2024-03-22T10:31:55;16.00;99.90
48007;DHT22;33771;48.180;11.400;2024-03-22T10:34:21;16.00;99.90
48007;DHT22;33771;48.180;11.400;2024-03-22T10:36:47;16.10;99.90
48007;DHT22;33771;48.180;11.400;2024-03-22T10:39:18;16.20;99.90
48007;DHT22;33771;48.180;11.400;2024-03-22T10:41:47;16.30;99.90
48007;DHT22;33771;48.180;11.400;2024-03-22T10:44:14;16.30;99.90
48007;DHT22;33771;48.180;11.400;2024-03-22T10:46:47;16.30;99.90
48007;DHT22;33771;48.180;11.400;2024-03-22T10:49:20;16.30;99.90
48007;DHT22;33771;48.180;11.400;2024-03-22T10:51:52;16.40;99.90
48007;DHT22;33771;48.180;11.400;2024-03-22T10:54:21;16.40;99.90
48007;DHT22;33771;48.180;11.400;2024-03-22T10:56:48;16.40;99.90
48007;DHT22;33771;48.180;11.400;2024-03-22T10:59:18;16.20;99.90
48007;DHT22;33771;48.180;11.400;2024-03-22T11:01:46;16.00;99.90
48007;DHT22;33771;48.180;11.400;2024-03-22T11:04:11;16.10;99.90
48007;DHT22;33771;48.180;11.400;2024-03-22T11:06:37;16.10;99.90
48007;DHT22;33771;48.180;11.400;2024-03-22T11:09:03;16.10;99.90
48007;DHT22;33771;48.180;11.400;2024-03-22T11:11:32;15.90;99.90
48007;DHT22;33771;48.180;11.400;2024-03-22T11:14:05;16.00;99.90
48007;DHT22;33771;48.180;11.400;2024-03-22T11:16:31;16.10;99.90
48007;DHT22;33771;48.180;11.400;2024-03-22T11:18:56;16.20;99.90
48007;DHT22;33771;48.180;11.400;2024-03-22T11:21:22;16.40;99.90
48007;DHT22;33771;48.180;11.400;2024-03-22T11:23:48;16.50;99.90
48007;DHT22;33771;48.180;11.400;2024-03-22T11:26:14;16.40;99.90
48007;DHT22;33771;48.180;11.400;2024-03-22T11:28:40;16.50;99.90
48007;DHT22;33771;48.180;11.400;2024-03-22T11:31:05;16.50;99.90
48007;DHT22;33771;48.180;11.400;2024-03-22T11:33:31;16.60;99.90
48007;DHT22;33771;48.180;11.400;2024-03-22T11:35:59;16.70;99.90
48007;DHT22;33771;48.180;11.400;2024-03-22T11:38:26;16.80;99.90
48007;DHT22;33771;48.180;11.400;2024-03-22T11:40:52;16.80;99.90
48007;DHT22;33771;48.180;11.400;2024-03-22T11:43:19;16.90;99.90
48007;DHT22;33771;48.180;11.400;2024-03-22T11:45:45;17.30;99.90
48007;DHT22;33771;48.180;11.400;2024-03-22T11:48:11;17.50;99.90
48007;DHT22;33771;48.180;11.400;2024-03-22T11:50:40;17.60;99.90
48007;DHT22;33771;48.180;11.400;2024-03-22T11:53:06;17.70;99.90
48007;DHT22;33771;48.180;11.400;2024-03-22T11:55:31;17.70;99.90
48007;DHT22;33771;48.180;11.400;2024-03-22T11:57:58;17.50;99.90
48007;DHT22;33771;48.180;11.400;2024-03-22T12:00:23;17.50;99.90
48007;DHT22;33771;48.180;11.400;2024-03-22T12:02:51;17.40;99.90
48007;DHT22;33771;48.180;11.400;2024-03-22T12:05:17;17.30;99.90
48007;DHT22;33771;48.180;11.400;2024-03-22T12:07:44;17.30;99.90
48007;DHT22;33771;48.180;11.400;2024-03-22T12:10:10;17.40;99.90
48007;DHT22;33771;48.180;11.400;2024-03-22T12:12:35;17.50;99.90
48007;DHT22;33771;48.180;11.400;2024-03-22T12:15:02;17.70;99.90
48007;DHT22;33771;48.180;11.400;2024-03-22T12:17:28;17.80;99.90
48007;DHT22;33771;48.180;11.400;2024-03-22T12:19:53;17.80;99.90
48007;DHT22;33771;48.180;11.400;2024-03-22T12:22:19;17.70;99.90
48007;DHT22;33771;48.180;11.400;2024-03-22T12:24:45;17.80;99.90
48007;DHT22;33771;48.180;11.400;2024-03-22T12:27:11;17.90;99.90
48007;DHT22;33771;48.180;11.400;2024-03-22T12:29:36;17.70;99.90
48007;DHT22;33771;48.180;11.400;2024-03-22T12:32:02;17.70;99.90
48007;DHT22;33771;48.180;11.400;2024-03-22T12:34:32;17.70;99.90
48007;DHT22;33771;48.180;11.400;2024-03-22T12:36:59;17.80;99.90
48007;DHT22;33771;48.180;11.400;2024-03-22T12:39:24;17.90;99.90
48007;DHT22;33771;48.180;11.400;2024-03-22T12:41:50;18.00;99.90
48007;DHT22;33771;48.180;11.400;2024-03-22T12:44:15;18.00;99.90
48007;DHT22;33771;48.180;11.400;2024-03-22T12:46:41;18.00;99.90
48007;DHT22;33771;48.180;11.400;2024-03-22T12:49:08;18.10;99.90
48007;DHT22;33771;48.180;11.400;2024-03-22T12:51:37;17.90;99.90
48007;DHT22;33771;48.180;11.400;2024-03-22T12:54:03;17.80;99.90
48007;DHT22;33771;48.180;11.400;2024-03-22T12:56:30;17.70;99.90
48007;DHT22;33771;48.180;11.400;2024-03-22T12:58:56;17.80;99.90
48007;DHT22;33771;48.180;11.400;2024-03-22T13:01:21;17.90;99.90
48007;DHT22;33771;48.180;11.400;2024-03-22T13:03:47;18.00;99.90
48007;DHT22;33771;48.180;11.400;2024-03-22T13:06:13;18.10;99.90
48007;DHT22;33771;48.180;11.400;2024-03-22T13:08:38;18.10;99.90
48007;DHT22;33771;48.180;11.400;2024-03-22T13:11:04;18.20;99.90
48007;DHT22;33771;48.180;11.400;2024-03-22T13:13:30;18.30;99.90
48007;DHT22;33771;48.180;11.400;2024-03-22T13:15:59;18.50;99.90
48007;DHT22;33771;48.180;11.400;2024-03-22T13:18:25;18.50;99.90
48007;DHT22;33771;48.180;11.400;2024-03-22T13:20:51;18.60;99.90
48007;DHT22;33771;48.180;11.400;2024-03-22T13:23:16;18.60;99.90
48007;DHT22;33771;48.180;11.400;2024-03-22T13:25:42;18.60;99.90
48007;DHT22;33771;48.180;11.400;2024-03-22T13:28:08;18.50;99.90
48007;DHT22;33771;48.180;11.400;2024-03-22T13:30:33;18.60;99.90
48007;DHT22;33771;48.180;11.400;2024-03-22T13:33:01;18.50;99.90
48007;DHT22;33771;48.180;11.400;2024-03-22T13:35:26;18.60;99.90
48007;DHT22;33771;48.180;11.400;2024-03-22T13:37:52;18.40;99.90
48007;DHT22;33771;48.180;11.400;2024-03-22T13:40:17;18.40;99.90
48007;DHT22;33771;48.180;11.400;2024-03-22T13:42:43;18.40;99.90
48007;DHT22;33771;48.180;11.400;2024-03-22T13:45:09;18.40;99.90
48007;DHT22;33771;48.180;11.400;2024-03-22T13:47:34;18.40;99.90
48007;DHT22;33771;48.180;11.400;2024-03-22T13:50:04;18.50;99.90
48007;DHT22;33771;48.180;11.400;2024-03-22T13:52:30;18.70;99.90
48007;DHT22;33771;48.180;11.400;2024-03-22T13:54:55;18.80;99.90
48007;DHT22;33771;48.180;11.400;2024-03-22T13:57:21;18.90;99.90
48007;DHT22;33771;48.180;11.400;2024-03-22T13:59:46;18.80;99.90
48007;DHT22;33771;48.180;11.400;2024-03-22T14:02:12;18.80;99.90
48007;DHT22;33771;48.180;11.400;2024-03-22T14:04:38;18.90;99.90
48007;DHT22;33771;48.180;11.400;2024-03-22T14:07:03;18.90;99.90
48007;DHT22;33771;48.180;11.400;2024-03-22T14:09:33;18.90;99.90
48007;DHT22;33771;48.180;11.400;2024-03-22T14:11:59;18.80;99.90
48007;DHT22;33771;48.180;11.400;2024-03-22T14:14:25;18.70;99.90
48007;DHT22;33771;48.180;11.400;2024-03-22T14:16:52;18.70;99.90
48007;DHT22;33771;48.180;11.400;2024-03-22T14:19:17;18.70;99.90
48007;DHT22;33771;48.180;11.400;2024-03-22T14:21:47;18.70;99.90
48007;DHT22;33771;48.180;11.400;2024-03-22T14:24:13;18.80;99.90
48007;DHT22;33771;48.180;11.400;2024-03-22T14:26:39;18.90;99.90
48007;DHT22;33771;48.180;11.400;2024-03-22T14:29:10;18.90;99.90
48007;DHT22;33771;48.180;11.400;2024-03-22T14:31:36;18.80;99.90
48007;DHT22;33771;48.180;11.400;2024-03-22T14:34:02;18.70;99.90
48007;DHT22;33771;48.180;11.400;2024-03-22T14:36:27;18.60;99.90
48007;DHT22;33771;48.180;11.400;2024-03-22T14:38:53;18.50;99.90
48007;DHT22;33771;48.180;11.400;2024-03-22T14:41:18;18.50;99.90
48007;DHT22;33771;48.180;11.400;2024-03-22T14:43:44;18.50;99.90
48007;DHT22;33771;48.180;11.400;2024-03-22T14:46:09;18.50;99.90
48007;DHT22;33771;48.180;11.400;2024-03-22T14:48:35;18.40;99.90
48007;DHT22;33771;48.180;11.400;2024-03-22T14:51:00;18.40;99.90
48007;DHT22;33771;48.180;11.400;2024-03-22T14:53:26;18.30;99.90
48007;DHT22;33771;48.180;11.400;2024-03-22T14:58:23;18.10;99.90
48007;DHT22;33771;48.180;11.400;2024-03-22T15:00:55;18.00;99.90
48007;DHT22;33771;48.180;11.400;2024-03-22T15:03:21;17.90;99.90
48007;DHT22;33771;48.180;11.400;2024-03-22T15:05:49;17.70;99.90
48007;DHT22;33771;48.180;11.400;2024-03-22T15:08:15;17.60;99.90
48007;DHT22;33771;48.180;11.400;2024-03-22T15:10:40;17.60;99.90
48007;DHT22;33771;48.180;11.400;2024-03-22T15:13:06;17.60;99.90
48007;DHT22;33771;48.180;11.400;2024-03-22T15:15:32;17.70;99.90
48007;DHT22;33771;48.180;11.400;2024-03-22T15:17:58;17.80;99.90
48007;DHT22;33771;48.180;11.400;2024-03-22T15:20:24;17.80;99.90
48007;DHT22;33771;48.180;11.400;2024-03-22T15:22:50;17.70;99.90